createdAt,value
2019-02-05T00:04:06.538Z,4
2019-02-05T00:09:08.937Z,3
2019-02-05T00:14:11.409Z,2
2019-02-05T00:19:13.966Z,4
2019-02-05T00:24:16.390Z,3
2019-02-05T00:29:18.770Z,3
2019-02-05T00:34:21.237Z,3
2019-02-05T00:39:23.683Z,3
2019-02-05T00:44:26.143Z,3
2019-02-05T00:49:28.599Z,1
2019-02-05T00:54:31.042Z,2
2019-02-05T00:59:33.515Z,1
2019-02-05T01:04:36.041Z,1
2019-02-05T01:09:38.422Z,1
2019-02-05T01:14:40.966Z,1
2019-02-05T01:19:43.376Z,1
2019-02-05T01:24:45.902Z,1
2019-02-05T01:29:48.261Z,2
2019-02-05T01:34:50.723Z,2
2019-02-05T01:39:53.197Z,2
2019-02-05T01:44:55.686Z,2
2019-02-05T01:49:58.084Z,2
2019-02-05T01:55:00.560Z,1
2019-02-05T02:00:03.337Z,1
2019-02-05T02:05:05.454Z,2
2019-02-05T02:10:07.939Z,2
2019-02-05T02:15:10.438Z,1
2019-02-05T02:20:12.824Z,2
2019-02-05T02:25:15.282Z,2
2019-02-05T02:30:17.781Z,2
2019-02-05T02:35:20.320Z,2
2019-02-05T02:40:22.674Z,2
2019-02-05T02:45:25.346Z,2
2019-02-05T02:50:27.633Z,2
2019-02-05T02:55:30.026Z,1
2019-02-05T03:00:32.532Z,2
2019-02-05T03:05:35.020Z,2
2019-02-05T03:10:37.398Z,2
2019-02-05T03:15:39.889Z,1
2019-02-05T03:20:42.333Z,1
2019-02-05T03:25:44.751Z,1
2019-02-05T03:30:47.263Z,1
2019-02-05T03:35:49.665Z,1
2019-02-05T03:40:52.122Z,1
2019-02-05T03:45:54.599Z,2
2019-02-05T03:50:57.054Z,2
2019-02-05T03:55:59.563Z,2
2019-02-05T04:01:02.090Z,1
2019-02-05T04:06:04.425Z,1
2019-02-05T04:11:06.895Z,2
2019-02-05T04:16:09.345Z,2
2019-02-05T04:21:11.797Z,1
2019-02-05T04:26:14.245Z,2
2019-02-05T04:31:16.693Z,2
2019-02-05T04:36:19.163Z,2
2019-02-05T04:41:21.654Z,1
2019-02-05T04:46:24.134Z,2
2019-02-05T04:51:28.218Z,2
2019-02-05T04:56:29.071Z,2
2019-02-05T05:01:31.616Z,1
2019-02-05T05:06:34.076Z,2
2019-02-05T05:11:36.526Z,2
2019-02-05T05:16:44.001Z,2
2019-02-05T05:21:41.613Z,2
2019-02-05T05:26:43.990Z,2
2019-02-05T05:31:46.488Z,4
2019-02-05T05:36:48.935Z,2
2019-02-05T05:41:51.396Z,2
2019-02-05T05:46:53.904Z,3
2019-02-05T05:51:56.343Z,2
2019-02-05T05:56:58.889Z,4
2019-02-05T06:02:01.435Z,3
2019-02-05T06:07:03.769Z,3
2019-02-05T06:12:06.253Z,6
2019-02-05T06:17:08.785Z,4
2019-02-05T06:22:11.231Z,6
2019-02-05T06:27:13.716Z,5
2019-02-05T06:32:16.300Z,6
2019-02-05T06:37:18.671Z,4
2019-02-05T06:42:21.138Z,4
2019-02-05T06:47:23.627Z,4
2019-02-05T06:52:26.139Z,5
2019-02-05T06:57:28.661Z,4
2019-02-05T07:02:31.061Z,4
2019-02-05T07:07:33.564Z,4
2019-02-05T07:12:36.022Z,4
2019-02-05T07:17:48.887Z,5
2019-02-05T07:22:41.027Z,9
2019-02-05T07:27:43.489Z,8
2019-02-05T07:32:45.949Z,7
2019-02-05T07:37:48.487Z,6
2019-02-05T07:42:50.899Z,6
2019-02-05T07:47:53.461Z,5
2019-02-05T07:52:56.242Z,5
2019-02-05T07:57:58.345Z,6
2019-02-05T08:03:00.832Z,6
2019-02-05T08:08:03.328Z,8
2019-02-05T08:13:05.813Z,7
2019-02-05T08:18:08.312Z,8
2019-02-05T08:23:10.721Z,6
2019-02-05T08:28:13.162Z,8
2019-02-05T08:33:15.623Z,8
2019-02-05T08:38:18.072Z,7
2019-02-05T08:43:20.557Z,9
2019-02-05T08:48:22.982Z,6
2019-02-05T08:53:25.487Z,6
2019-02-05T08:58:30.863Z,6
2019-02-05T09:03:30.380Z,8
2019-02-05T09:08:32.828Z,6
2019-02-05T09:13:35.304Z,6
2019-02-05T09:18:37.817Z,6
2019-02-05T09:23:40.232Z,6
2019-02-05T09:28:42.637Z,6
2019-02-05T09:33:45.099Z,6
2019-02-05T09:38:47.647Z,6
2019-02-05T09:43:50.016Z,6
2019-02-05T09:48:52.509Z,6
2019-02-05T09:53:54.926Z,6
2019-02-05T09:58:57.448Z,6
2019-02-05T10:03:59.851Z,6
2019-02-05T10:09:02.357Z,6
2019-02-05T10:14:04.866Z,7
2019-02-05T10:19:07.221Z,7
2019-02-05T10:24:09.662Z,10
2019-02-05T10:29:12.182Z,8
2019-02-05T10:34:14.602Z,8
2019-02-05T10:39:17.074Z,8
2019-02-05T10:44:19.557Z,7
2019-02-05T10:49:22.001Z,6
2019-02-05T10:54:24.492Z,16
2019-02-05T10:59:26.884Z,4
2019-02-05T11:04:29.329Z,5
2019-02-05T11:09:31.808Z,5
2019-02-05T11:14:34.279Z,4
2019-02-05T11:19:36.728Z,5
2019-02-05T11:24:39.189Z,5
2019-02-05T11:29:41.620Z,6
2019-02-05T11:34:44.090Z,6
2019-02-05T11:39:46.540Z,6
2019-02-05T11:44:49.000Z,6
2019-02-05T11:49:51.455Z,5
2019-02-05T11:54:53.928Z,5
2019-02-05T11:59:56.367Z,6
2019-02-05T12:04:58.816Z,6
2019-02-05T12:10:06.696Z,7
2019-02-05T12:15:03.765Z,6
2019-02-05T12:20:06.245Z,6
2019-02-05T12:25:08.668Z,6
2019-02-05T12:30:11.162Z,6
2019-02-05T12:35:13.636Z,6
2019-02-05T12:40:16.035Z,6
2019-02-05T12:45:18.473Z,6
2019-02-05T12:50:20.931Z,7
2019-02-05T12:55:23.406Z,7
2019-02-05T13:00:25.919Z,7
2019-02-05T13:05:28.312Z,7
2019-02-05T13:10:30.784Z,7
2019-02-05T13:15:33.231Z,7
2019-02-05T13:20:35.753Z,7
2019-02-05T13:25:38.134Z,7
2019-02-05T13:30:40.575Z,7
2019-02-05T13:35:43.047Z,8
2019-02-05T13:40:45.671Z,8
2019-02-05T13:45:47.965Z,8
2019-02-05T13:50:50.412Z,8
2019-02-05T13:55:53.023Z,7
2019-02-05T14:00:55.375Z,7
2019-02-05T14:05:57.784Z,8
2019-02-05T14:11:00.426Z,7
2019-02-05T14:16:02.731Z,8
2019-02-05T14:21:05.177Z,9
2019-02-05T14:26:07.625Z,7
2019-02-05T14:31:10.181Z,8
2019-02-05T14:36:12.524Z,8
2019-02-05T14:41:14.989Z,8
2019-02-05T14:46:17.592Z,9
2019-02-05T14:51:19.992Z,9
2019-02-05T14:56:22.381Z,7
2019-02-05T15:01:24.837Z,8
2019-02-05T15:06:27.362Z,8
2019-02-05T15:11:29.756Z,9
2019-02-05T15:16:32.351Z,8
2019-02-05T15:21:34.669Z,9
2019-02-05T15:26:37.169Z,8
2019-02-05T15:31:39.587Z,9
2019-02-05T15:36:42.025Z,8
2019-02-05T15:41:44.504Z,11
2019-02-05T15:46:46.942Z,12
2019-02-05T15:51:49.403Z,11
2019-02-05T15:56:51.954Z,9
2019-02-05T16:02:05.533Z,11
2019-02-05T16:06:56.773Z,10
2019-02-05T16:11:59.221Z,10
2019-02-05T16:17:01.711Z,8
2019-02-05T16:22:04.169Z,9
2019-02-05T16:27:06.698Z,8
2019-02-05T16:32:17.199Z,9
2019-02-05T16:37:11.532Z,10
2019-02-05T16:42:14.030Z,11
2019-02-05T16:47:16.482Z,27
2019-02-05T16:52:19.096Z,27
2019-02-05T16:57:21.415Z,25
2019-02-05T17:02:28.772Z,23
2019-02-05T17:07:26.379Z,20
2019-02-05T17:12:28.805Z,19
2019-02-05T17:17:31.324Z,32
2019-02-05T17:22:33.754Z,80
2019-02-05T17:27:36.186Z,28
2019-02-05T17:32:40.090Z,24
2019-02-05T17:37:41.127Z,24
2019-02-05T17:42:43.596Z,18
2019-02-05T17:47:46.072Z,21
2019-02-05T17:52:48.498Z,25
2019-02-05T17:57:50.972Z,23
2019-02-05T18:02:53.586Z,19
2019-02-05T18:07:55.904Z,27
2019-02-05T18:12:58.475Z,27
2019-02-05T18:18:00.833Z,34
2019-02-05T18:23:03.313Z,25
2019-02-05T18:28:05.752Z,27
2019-02-05T18:33:08.239Z,23
2019-02-05T18:38:10.696Z,28
2019-02-05T18:43:13.143Z,84
2019-02-05T18:48:15.666Z,16
2019-02-05T18:53:18.114Z,12
2019-02-05T18:58:20.548Z,19
2019-02-05T19:03:23.007Z,17
2019-02-05T19:08:25.468Z,14
2019-02-05T19:13:27.956Z,17
2019-02-05T19:18:30.439Z,18
2019-02-05T19:23:32.863Z,16
2019-02-05T19:33:37.793Z,19
2019-02-05T19:38:40.338Z,19
2019-02-05T19:43:42.722Z,16
2019-02-05T19:48:45.280Z,15
2019-02-05T19:53:47.639Z,17
2019-02-05T19:58:50.100Z,16
2019-02-05T20:03:52.611Z,15
2019-02-05T20:08:55.039Z,17
2019-02-05T20:13:57.522Z,16
2019-02-05T20:18:59.975Z,17
2019-02-05T20:24:02.529Z,17
2019-02-05T20:29:04.902Z,18
2019-02-05T20:34:07.361Z,17
2019-02-05T20:39:09.871Z,15
2019-02-05T20:44:12.289Z,18
2019-02-05T20:49:14.753Z,19
2019-02-05T20:54:18.699Z,17
2019-02-05T20:59:19.664Z,19
2019-02-05T21:04:22.197Z,18
2019-02-05T21:09:24.584Z,18
2019-02-05T21:14:27.082Z,15
2019-02-05T21:19:29.601Z,16
2019-02-05T21:24:31.973Z,16
2019-02-05T21:29:34.635Z,15
2019-02-05T21:34:36.915Z,14
2019-02-05T21:39:39.395Z,14
2019-02-05T21:44:41.843Z,14
2019-02-05T21:49:44.308Z,15
2019-02-05T21:54:46.798Z,14
2019-02-05T21:59:49.354Z,15
2019-02-05T22:04:51.705Z,16
2019-02-05T22:09:54.172Z,17
2019-02-05T22:14:56.622Z,15
2019-02-05T22:19:59.125Z,16
2019-02-05T22:25:06.624Z,17
2019-02-05T22:30:04.100Z,18
2019-02-05T22:35:06.494Z,16
2019-02-05T22:40:09.265Z,16
2019-02-05T22:45:11.420Z,16
2019-02-05T22:50:13.964Z,17
2019-02-05T22:55:16.405Z,16
2019-02-05T23:00:19.073Z,18
2019-02-05T23:05:21.258Z,18
2019-02-05T23:10:23.754Z,17
2019-02-05T23:15:28.919Z,19
2019-02-05T23:20:28.732Z,18
2019-02-05T23:25:31.170Z,14
2019-02-05T23:30:33.627Z,17
2019-02-05T23:35:36.054Z,18
2019-02-05T23:40:38.512Z,16
2019-02-05T23:45:40.980Z,16
2019-02-05T23:50:43.454Z,17
2019-02-05T23:55:45.919Z,17
